Bluemoon — C6ZQ6 — position and weather

sailwx.info

Track history (hours):
 
Tides and Currents Weather Stations Pressure Air Temp Water Temp Dewpoint Dewpoint Depression Visibility Wind Speed Wind Dir Waves Ship Positions

Bluemoon

Last reported at 2018-Jul-20 22:45 UTC. Time now 2018-Jul-22 04:47 UTC.
Position N 01°37' E 104°38'.

Length 289 m; draft 16.7 m.

Type: Cargo ship. MMSI: 311063200.

Date/timePositionNaut miles runAvg speedWind from/ knotsBaromVisibWave heightAir tempDewpointWater temp
2018-Jul-20 22:45N 01°37' E 104°38'1411.8
2018-Jul-20 21:32N 01°25' E 104°29'111.7
2018-Jul-20 21:26N 01°25' E 104°28'611.9
2018-Jul-20 20:56N 01°21' E 104°24'511.8
2018-Jul-20 20:30N 01°18' E 104°20'611.6
2018-Jul-20 20:00N 01°17' E 104°14'611.7
2018-Jul-20 19:30N 01°16' E 104°08'610.8
2018-Jul-20 18:58N 01°15' E 104°03'4 8.8
2018-Jul-20 18:30N 01°15' E 103°59'2 4.2
2018-Jul-20 18:00N 01°16' E 103°57'0 0.4
2018-Jul-20 17:11N 01°16' E 103°57'0 0.0
2018-Jul-20 16:58N 01°16' E 103°57'0 0.0
2018-Jul-20 16:28N 01°16' E 103°57'0 0.0
2018-Jul-20 15:59N 01°16' E 103°57'0 0.0
2018-Jul-20 15:28N 01°16' E 103°57'0 0.0
2018-Jul-20 14:56N 01°16' E 103°57'0 0.0
2018-Jul-20 14:23N 01°16' E 103°57'0 0.0
2018-Jul-20 13:56N 01°16' E 103°57'0 0.0
2018-Jul-20 13:13N 01°16' E 103°57'0 0.1
2018-Jul-20 12:59N 01°16' E 103°57'0 0.1
2018-Jul-20 12:26N 01°16' E 103°57'0 0.2
2018-Jul-20 11:58N 01°16' E 103°57'0 0.2
2018-Jul-20 11:22N 01°16' E 103°57'0 0.2
2018-Jul-20 10:53N 01°16' E 103°57'0 0.1
2018-Jul-20 10:22N 01°16' E 103°57'0 0.1
2018-Jul-20 09:58N 01°16' E 103°57'0 0.0
2018-Jul-20 09:04N 01°16' E 103°57'0 0.0
2018-Jul-20 08:46N 01°16' E 103°57'0 0.1
2018-Jul-20 08:28N 01°16' E 103°57'0 0.0
2018-Jul-20 06:46N 01°16' E 103°57'0 0.2
2018-Jul-20 05:34N 01°16' E 103°57'0 0.4
2018-Jul-20 05:25N 01°16' E 103°57'0 0.1
2018-Jul-20 04:59N 01°16' E 103°57'0 0.1
2018-Jul-20 04:25N 01°16' E 103°57'0 0.0
2018-Jul-20 03:37N 01°16' E 103°57'0 0.0
2018-Jul-20 03:18N 01°16' E 103°57'0 0.0
2018-Jul-20 02:59N 01°16' E 103°57'0 0.2
2018-Jul-20 02:26N 01°16' E 103°57'1 1.2
2018-Jul-20 01:59N 01°16' E 103°57'1 2.5
2018-Jul-20 01:29N 01°15' E 103°57'2 3.8
2018-Jul-20 00:58N 01°14' E 103°56'3 6.1
2018-Jul-20 00:29N 01°12' E 103°53'3 6.4
2018-Jul-20 00:00N 01°11' E 103°50'3 6.9
2018-Jul-19 23:30N 01°10' E 103°47'3 6.5
2018-Jul-19 23:00N 01°07' E 103°45'4 7.2
2018-Jul-19 22:30N 01°05' E 103°42'4 7.2
2018-Jul-19 21:58N 01°03' E 103°39'4 7.8
2018-Jul-19 21:30N 01°05' E 103°35'4 8.4
2018-Jul-19 21:00N 01°07' E 103°32'4 8.2
2018-Jul-19 20:30N 01°09' E 103°28'4 8.3
2018-Jul-19 20:00N 01°11' E 103°25'5 9.3
2018-Jul-19 19:30N 01°14' E 103°21'5 9.6
2018-Jul-19 18:57N 01°18' E 103°17'6 9.6
2018-Jul-19 18:21N 01°21' E 103°13'4 9.7
2018-Jul-19 17:57N 01°24' E 103°10'  
Track history (hours):
 
Tides and Currents Weather Stations Pressure Air Temp Water Temp Dewpoint Dewpoint Depression Visibility Wind Speed Wind Dir Waves Ship Positions

Bluemoon

Last reported at 2018-Jul-20 22:45 UTC. Time now 2018-Jul-22 04:47 UTC.
Position N 01°37' E 104°38'.

Length 289 m; draft 16.7 m.

Type: Cargo ship. MMSI: 311063200.

Date/timePositionNaut miles runAvg speedWind from/ knotsBaromVisibWave heightAir tempDewpointWater temp
2018-Jul-20 22:45N 01°37' E 104°38'1411.8
2018-Jul-20 21:32N 01°25' E 104°29'111.7
2018-Jul-20 21:26N 01°25' E 104°28'611.9
2018-Jul-20 20:56N 01°21' E 104°24'511.8
2018-Jul-20 20:30N 01°18' E 104°20'611.6
2018-Jul-20 20:00N 01°17' E 104°14'611.7
2018-Jul-20 19:30N 01°16' E 104°08'610.8
2018-Jul-20 18:58N 01°15' E 104°03'4 8.8
2018-Jul-20 18:30N 01°15' E 103°59'2 4.2
2018-Jul-20 18:00N 01°16' E 103°57'0 0.4
2018-Jul-20 17:11N 01°16' E 103°57'0 0.0
2018-Jul-20 16:58N 01°16' E 103°57'0 0.0
2018-Jul-20 16:28N 01°16' E 103°57'0 0.0
2018-Jul-20 15:59N 01°16' E 103°57'0 0.0
2018-Jul-20 15:28N 01°16' E 103°57'0 0.0
2018-Jul-20 14:56N 01°16' E 103°57'0 0.0
2018-Jul-20 14:23N 01°16' E 103°57'0 0.0
2018-Jul-20 13:56N 01°16' E 103°57'0 0.0
2018-Jul-20 13:13N 01°16' E 103°57'0 0.1
2018-Jul-20 12:59N 01°16' E 103°57'0 0.1
2018-Jul-20 12:26N 01°16' E 103°57'0 0.2
2018-Jul-20 11:58N 01°16' E 103°57'0 0.2
2018-Jul-20 11:22N 01°16' E 103°57'0 0.2
2018-Jul-20 10:53N 01°16' E 103°57'0 0.1
2018-Jul-20 10:22N 01°16' E 103°57'0 0.1
2018-Jul-20 09:58N 01°16' E 103°57'0 0.0
2018-Jul-20 09:04N 01°16' E 103°57'0 0.0
2018-Jul-20 08:46N 01°16' E 103°57'0 0.1
2018-Jul-20 08:28N 01°16' E 103°57'0 0.0
2018-Jul-20 06:46N 01°16' E 103°57'0 0.2
2018-Jul-20 05:34N 01°16' E 103°57'0 0.4
2018-Jul-20 05:25N 01°16' E 103°57'0 0.1
2018-Jul-20 04:59N 01°16' E 103°57'0 0.1
2018-Jul-20 04:25N 01°16' E 103°57'0 0.0
2018-Jul-20 03:37N 01°16' E 103°57'0 0.0
2018-Jul-20 03:18N 01°16' E 103°57'0 0.0
2018-Jul-20 02:59N 01°16' E 103°57'0 0.2
2018-Jul-20 02:26N 01°16' E 103°57'1 1.2
2018-Jul-20 01:59N 01°16' E 103°57'1 2.5
2018-Jul-20 01:29N 01°15' E 103°57'2 3.8
2018-Jul-20 00:58N 01°14' E 103°56'3 6.1
2018-Jul-20 00:29N 01°12' E 103°53'3 6.4
2018-Jul-20 00:00N 01°11' E 103°50'3 6.9
2018-Jul-19 23:30N 01°10' E 103°47'3 6.5
2018-Jul-19 23:00N 01°07' E 103°45'4 7.2
2018-Jul-19 22:30N 01°05' E 103°42'4 7.2
2018-Jul-19 21:58N 01°03' E 103°39'4 7.8
2018-Jul-19 21:30N 01°05' E 103°35'4 8.4
2018-Jul-19 21:00N 01°07' E 103°32'4 8.2
2018-Jul-19 20:30N 01°09' E 103°28'4 8.3
2018-Jul-19 20:00N 01°11' E 103°25'5 9.3
2018-Jul-19 19:30N 01°14' E 103°21'5 9.6
2018-Jul-19 18:57N 01°18' E 103°17'6 9.6
2018-Jul-19 18:21N 01°21' E 103°13'4 9.7
2018-Jul-19 17:57N 01°24' E 103°10'  

Dump ship's entire track history